Time;durP1;ratioP1;P1;durP2;ratioP2;P2;SDS_P1;SDS_P2;PMS_P1;PMS_P2;Temp;Humidity;BMP_temperature;BMP_pressure;BME280_temperature;BME280_humidity;BME280_pressure;Samples;Min_cycle;Max_cycle;Signal;HPM_P1;HPM_P2
2024/01/16 00:01:34;;;;;;;5.00;1.43;;;1.30;99.90;;;;;;4763157;30;20249;-87
2024/01/16 00:04:00;;;;;;;4.47;1.47;;;1.20;99.90;;;;;;4757793;30;20196;-86
2024/01/16 00:06:32;;;;;;;3.80;1.40;;;1.30;99.90;;;;;;4763092;30;20222;-87
2024/01/16 00:08:57;;;;;;;7.07;1.47;;;1.30;99.90;;;;;;4773176;30;20196;-86
2024/01/16 00:11:23;;;;;;;7.07;1.50;;;1.40;99.90;;;;;;4779498;30;20191;-86
2024/01/16 00:13:49;;;;;;;2.50;1.37;;;1.40;99.90;;;;;;4766613;30;20203;-86
2024/01/16 00:16:45;;;;;;;3.00;1.30;;;1.40;99.90;;;;;;5017153;24;20210;31
2024/01/16 00:19:12;;;;;;;7.20;1.83;;;1.40;99.90;;;;;;4707538;30;20230;-85
2024/01/16 00:21:47;;;;;;;3.10;1.67;;;1.40;99.90;;;;;;4718977;30;20625;-85
2024/01/16 00:24:16;;;;;;;4.27;1.20;;;1.30;99.90;;;;;;4729020;30;20200;-85
2024/01/16 00:26:42;;;;;;;5.07;1.80;;;1.30;99.90;;;;;;4719320;30;20193;-87
2024/01/16 00:29:12;;;;;;;5.53;1.50;;;1.30;99.90;;;;;;4733840;30;20204;-85
2024/01/16 00:31:41;;;;;;;7.43;1.67;;;1.30;99.90;;;;;;4734492;30;20199;-84
2024/01/16 00:34:06;;;;;;;5.57;1.80;;;1.40;99.90;;;;;;4734491;30;20285;-84
2024/01/16 00:36:32;;;;;;;4.43;1.80;;;1.30;99.90;;;;;;4734471;30;20339;-83
2024/01/16 00:38:59;;;;;;;2.77;1.53;;;1.20;99.90;;;;;;4735715;30;20239;-84
2024/01/16 00:41:25;;;;;;;4.23;1.50;;;1.30;99.90;;;;;;4734602;30;20667;-85
2024/01/16 00:43:50;;;;;;;4.00;1.57;;;1.30;99.90;;;;;;4734250;30;20221;-86
2024/01/16 00:46:16;;;;;;;1.83;1.43;;;1.20;99.90;;;;;;4735405;30;20200;-85
2024/01/16 00:48:42;;;;;;;4.07;1.80;;;1.30;99.90;;;;;;4731762;30;20257;-86
2024/01/16 00:51:08;;;;;;;3.20;1.63;;;1.30;99.90;;;;;;4727045;30;20534;-85
2024/01/16 00:53:39;;;;;;;4.30;1.77;;;1.20;99.90;;;;;;4734264;30;20197;-83
2024/01/16 00:56:05;;;;;;;5.93;1.87;;;1.20;99.90;;;;;;4730671;30;20713;-86
2024/01/16 00:58:30;;;;;;;4.87;1.47;;;1.10;99.90;;;;;;4732909;30;20258;-85
2024/01/16 01:00:56;;;;;;;3.93;1.80;;;1.10;99.90;;;;;;4735275;30;20278;-84
2024/01/16 01:03:22;;;;;;;5.43;1.93;;;1.20;99.90;;;;;;4734100;30;20585;-84
2024/01/16 01:05:48;;;;;;;3.80;1.77;;;1.10;99.90;;;;;;4734331;30;20535;-86
2024/01/16 01:08:13;;;;;;;3.83;1.50;;;1.10;99.90;;;;;;4733643;30;20224;-85
2024/01/16 01:10:40;;;;;;;8.63;1.60;;;1.10;99.90;;;;;;4733883;30;20201;-85
2024/01/16 01:13:06;;;;;;;3.43;1.60;;;1.10;99.90;;;;;;4734269;30;20247;-86
2024/01/16 01:15:31;;;;;;;4.27;1.70;;;1.10;99.90;;;;;;4734224;30;20189;-84
2024/01/16 01:17:57;;;;;;;4.03;1.80;;;1.10;99.90;;;;;;4732924;30;20236;-85
2024/01/16 01:20:23;;;;;;;4.20;1.70;;;1.10;99.90;;;;;;4734159;30;20260;-85
2024/01/16 01:22:48;;;;;;;4.10;1.40;;;1.10;99.90;;;;;;4733851;30;20190;-85
2024/01/16 01:25:14;;;;;;;2.80;1.43;;;1.10;99.90;;;;;;4734028;30;20242;-84
2024/01/16 01:27:40;;;;;;;4.93;1.63;;;1.00;99.90;;;;;;4734689;30;20642;-85
2024/01/16 01:30:12;;;;;;;2.47;1.40;;;1.00;99.90;;;;;;4733694;30;20736;-84
2024/01/16 01:32:38;;;;;;;6.03;1.40;;;1.00;99.90;;;;;;4733577;30;20204;-84
2024/01/16 01:35:05;;;;;;;6.00;1.93;;;0.90;99.90;;;;;;4735040;30;20200;-85
2024/01/16 01:37:31;;;;;;;5.93;2.10;;;0.90;99.90;;;;;;4733802;30;20251;-84
2024/01/16 01:39:58;;;;;;;2.90;1.60;;;0.90;99.90;;;;;;4735771;30;20252;-85
2024/01/16 01:42:23;;;;;;;2.77;1.60;;;0.90;99.90;;;;;;4736659;30;20204;-85
2024/01/16 01:44:49;;;;;;;2.40;1.73;;;1.00;99.90;;;;;;4722671;30;20800;-85
2024/01/16 01:47:15;;;;;;;4.60;2.03;;;1.00;99.90;;;;;;4736247;30;20248;-85
2024/01/16 01:49:42;;;;;;;2.10;1.60;;;1.00;99.90;;;;;;4736633;30;20193;-84
2024/01/16 01:52:08;;;;;;;3.30;1.50;;;1.00;99.90;;;;;;4736711;30;20637;-84
2024/01/16 01:54:36;;;;;;;2.47;1.50;;;1.00;99.90;;;;;;4737735;30;20197;-82
2024/01/16 01:57:03;;;;;;;2.13;1.50;;;1.00;99.90;;;;;;4736629;30;20197;-85
2024/01/16 01:59:30;;;;;;;3.03;1.63;;;1.00;99.90;;;;;;4736181;30;20221;-84
2024/01/16 02:01:56;;;;;;;2.50;1.17;;;1.10;99.90;;;;;;4736408;30;20204;-86
2024/01/16 02:04:24;;;;;;;3.70;1.33;;;1.00;99.90;;;;;;4736227;30;20606;-84
2024/01/16 02:06:50;;;;;;;1.70;1.23;;;1.00;99.90;;;;;;4736374;30;20220;-86
2024/01/16 02:09:16;;;;;;;3.23;1.20;;;0.90;99.90;;;;;;4736060;30;20229;-84
2024/01/16 02:11:42;;;;;;;2.17;1.07;;;1.00;99.90;;;;;;4736180;30;20193;-84
2024/01/16 02:14:08;;;;;;;2.87;1.40;;;1.00;99.90;;;;;;4736564;30;20637;-86
2024/01/16 02:16:39;;;;;;;4.67;1.10;;;1.10;99.90;;;;;;4737550;30;20296;-86
2024/01/16 02:19:06;;;;;;;3.73;1.30;;;1.00;99.90;;;;;;4713924;30;20238;-85
2024/01/16 02:21:48;;;;;;;4.73;1.30;;;1.00;99.90;;;;;;4708475;30;20643;-84
2024/01/16 02:24:15;;;;;;;3.03;1.17;;;0.90;99.90;;;;;;4716384;30;20194;-85
2024/01/16 02:26:41;;;;;;;4.97;1.60;;;0.90;99.90;;;;;;4715715;30;20233;-85
2024/01/16 02:29:07;;;;;;;2.87;1.20;;;0.90;99.90;;;;;;4697266;30;20206;-85
2024/01/16 02:31:33;;;;;;;3.30;0.93;;;0.70;99.90;;;;;;4713556;30;20543;-85
2024/01/16 02:34:00;;;;;;;2.43;1.20;;;0.80;99.90;;;;;;4702144;30;20285;-84
2024/01/16 02:36:27;;;;;;;5.27;1.03;;;0.80;99.90;;;;;;4715454;30;20191;-85
2024/01/16 02:38:52;;;;;;;2.13;0.90;;;0.90;99.90;;;;;;4701949;30;20198;-84
2024/01/16 02:41:18;;;;;;;2.60;0.77;;;0.90;99.90;;;;;;4715537;30;20290;-84
2024/01/16 02:43:45;;;;;;;1.50;0.60;;;1.00;99.90;;;;;;4701129;30;20210;-84
2024/01/16 02:46:11;;;;;;;4.40;0.83;;;1.00;99.90;;;;;;4701963;30;20248;-83
2024/01/16 02:48:37;;;;;;;0.73;0.67;;;0.80;99.90;;;;;;4700128;30;20269;-85
2024/01/16 02:51:04;;;;;;;1.40;0.90;;;0.70;99.90;;;;;;4714530;30;20198;-84
2024/01/16 02:53:30;;;;;;;2.33;0.90;;;0.70;99.90;;;;;;4701613;30;20189;-84
2024/01/16 02:55:58;;;;;;;2.53;0.80;;;0.60;99.90;;;;;;4715434;30;20203;-85
2024/01/16 02:58:25;;;;;;;2.43;0.80;;;0.70;99.90;;;;;;4715058;30;20207;-86
2024/01/16 03:00:51;;;;;;;1.97;1.00;;;0.80;99.90;;;;;;4714964;30;20561;-85
2024/01/16 03:03:17;;;;;;;3.87;1.10;;;0.70;99.90;;;;;;4714660;30;20202;-85
2024/01/16 03:05:43;;;;;;;5.70;1.20;;;0.70;99.90;;;;;;4715106;30;20214;-85
2024/01/16 03:08:08;;;;;;;2.60;1.20;;;0.90;99.90;;;;;;4714686;30;20834;-86
2024/01/16 03:10:35;;;;;;;3.13;1.13;;;0.90;99.90;;;;;;4715146;30;20284;-85
2024/01/16 03:13:01;;;;;;;2.13;1.10;;;0.90;99.90;;;;;;4702140;30;20203;-86
2024/01/16 03:15:26;;;;;;;4.57;1.63;;;0.90;99.90;;;;;;4715103;30;20215;-85
2024/01/16 03:17:52;;;;;;;2.67;1.70;;;0.80;99.90;;;;;;4721821;30;20253;-86
2024/01/16 03:20:18;;;;;;;3.03;1.50;;;0.80;99.90;;;;;;4732200;30;20233;-84
2024/01/16 03:22:44;;;;;;;5.43;1.60;;;0.70;99.90;;;;;;4732207;30;20208;-85
2024/01/16 03:25:12;;;;;;;4.40;1.60;;;0.60;99.90;;;;;;4717780;30;20201;-85
2024/01/16 03:27:38;;;;;;;4.17;1.40;;;0.70;99.90;;;;;;4732287;30;20546;-84
2024/01/16 03:30:04;;;;;;;6.37;1.40;;;0.70;99.90;;;;;;4732192;30;20205;-84
2024/01/16 03:32:30;;;;;;;3.30;1.33;;;0.70;99.90;;;;;;4718894;30;20202;-84
2024/01/16 03:34:55;;;;;;;2.07;1.27;;;0.70;99.90;;;;;;4718392;30;20586;-83
2024/01/16 03:37:21;;;;;;;3.30;0.93;;;0.70;99.90;;;;;;4717764;30;20210;-85
2024/01/16 03:39:47;;;;;;;4.00;1.63;;;0.70;99.90;;;;;;4732066;30;20226;-87
2024/01/16 03:42:12;;;;;;;3.00;1.20;;;0.80;99.90;;;;;;4726023;30;20202;-86
2024/01/16 03:44:41;;;;;;;3.93;1.13;;;0.80;99.90;;;;;;4716363;30;20209;-85
2024/01/16 03:47:08;;;;;;;4.97;1.00;;;0.90;99.90;;;;;;4718814;30;20198;-85
2024/01/16 03:49:34;;;;;;;1.87;1.00;;;0.90;99.90;;;;;;4716835;30;20204;-86
2024/01/16 03:52:00;;;;;;;2.10;1.10;;;0.90;99.90;;;;;;4732129;30;20205;-85
2024/01/16 03:54:25;;;;;;;4.20;1.03;;;0.90;99.90;;;;;;4718619;30;20202;-86
2024/01/16 03:56:52;;;;;;;3.57;0.90;;;0.90;99.90;;;;;;4732191;30;20276;-85
2024/01/16 03:59:18;;;;;;;1.40;1.30;;;0.90;99.90;;;;;;4718401;30;20232;-85
2024/01/16 04:01:45;;;;;;;3.10;1.30;;;0.90;99.90;;;;;;4731920;30;20206;-84
2024/01/16 04:04:11;;;;;;;4.20;0.97;;;1.00;99.90;;;;;;4732054;30;20198;-85
2024/01/16 04:06:37;;;;;;;1.43;1.17;;;0.90;99.90;;;;;;4732038;30;20210;-86
2024/01/16 04:09:04;;;;;;;2.07;1.00;;;0.90;99.90;;;;;;4732458;30;20292;-87
2024/01/16 04:11:31;;;;;;;2.00;0.90;;;0.90;99.90;;;;;;4717804;30;20622;-87
2024/01/16 04:13:57;;;;;;;2.93;1.03;;;0.80;99.90;;;;;;4732254;30;20202;-89
2024/01/16 04:16:22;;;;;;;3.13;0.90;;;0.80;99.90;;;;;;4717662;30;20635;-86
2024/01/16 04:18:48;;;;;;;4.13;1.10;;;0.90;99.90;;;;;;4715517;30;20241;-87
2024/01/16 04:21:14;;;;;;;2.70;1.00;;;0.90;99.90;;;;;;4724861;30;20267;-88
2024/01/16 04:23:41;;;;;;;3.70;1.47;;;0.90;99.90;;;;;;4717907;30;20541;-89
2024/01/16 04:26:07;;;;;;;1.83;0.80;;;0.80;99.90;;;;;;4732314;30;20272;-86
2024/01/16 04:28:34;;;;;;;6.03;1.30;;;0.70;99.90;;;;;;4732204;30;20658;-87
2024/01/16 04:31:04;;;;;;;3.80;1.00;;;0.90;99.90;;;;;;4732163;30;20197;-87
2024/01/16 04:33:29;;;;;;;3.17;0.80;;;0.80;99.90;;;;;;4718393;30;20240;-86
2024/01/16 04:35:56;;;;;;;4.90;1.10;;;0.80;99.90;;;;;;4732300;30;20198;-87
2024/01/16 04:38:22;;;;;;;2.57;0.97;;;0.80;99.90;;;;;;4724393;30;20194;-86
2024/01/16 04:40:48;;;;;;;2.77;0.80;;;0.60;99.90;;;;;;4731820;30;20229;-87
2024/01/16 04:43:14;;;;;;;4.20;1.30;;;0.50;99.90;;;;;;4731984;30;20196;-85
2024/01/16 04:45:40;;;;;;;3.23;1.70;;;0.50;99.90;;;;;;4731591;30;20653;-85
2024/01/16 04:48:06;;;;;;;4.70;1.10;;;0.40;99.90;;;;;;4714677;30;20288;-87
2024/01/16 04:50:31;;;;;;;3.97;1.70;;;0.40;99.90;;;;;;4731790;30;20198;-87
2024/01/16 04:53:01;;;;;;;4.57;1.40;;;0.30;99.90;;;;;;4731724;30;20242;-86
2024/01/16 04:55:27;;;;;;;4.10;1.47;;;0.30;99.90;;;;;;4731655;30;20194;-87
2024/01/16 04:57:54;;;;;;;2.50;1.17;;;0.40;99.90;;;;;;4731615;30;20201;-86
2024/01/16 05:00:20;;;;;;;9.27;1.40;;;0.30;99.90;;;;;;4709742;30;20225;-87
2024/01/16 05:02:47;;;;;;;5.50;1.77;;;0.30;99.90;;;;;;4718047;30;20196;-87
2024/01/16 05:05:13;;;;;;;6.70;1.90;;;0.30;99.90;;;;;;4731341;30;20202;-86
2024/01/16 05:07:40;;;;;;;5.30;1.83;;;0.20;99.90;;;;;;4731028;30;20233;-86
2024/01/16 05:10:09;;;;;;;5.73;1.90;;;0.30;99.90;;;;;;4724150;30;20281;-87
2024/01/16 05:12:34;;;;;;;5.50;2.03;;;0.30;99.90;;;;;;4715623;30;20253;-87
2024/01/16 05:15:00;;;;;;;5.77;2.17;;;0.30;99.90;;;;;;4704661;30;20225;-87
2024/01/16 05:17:26;;;;;;;6.67;2.23;;;0.30;99.90;;;;;;4719354;30;20580;-87
2024/01/16 05:19:52;;;;;;;6.30;1.77;;;0.40;99.90;;;;;;4737253;30;20221;-87
2024/01/16 05:22:19;;;;;;;5.50;2.23;;;0.30;99.90;;;;;;4738992;30;20206;-87
2024/01/16 05:24:45;;;;;;;5.67;2.10;;;0.30;99.90;;;;;;4730509;30;20665;-89
2024/01/16 05:27:11;;;;;;;5.37;1.73;;;0.40;99.90;;;;;;4737557;30;20201;-86
2024/01/16 05:29:37;;;;;;;10.37;2.37;;;0.40;99.90;;;;;;4737389;30;20589;-86
2024/01/16 05:32:04;;;;;;;9.80;2.60;;;0.40;99.90;;;;;;4737626;30;20586;-87
2024/01/16 05:34:30;;;;;;;7.83;2.13;;;0.40;99.90;;;;;;4737150;30;20194;-87
2024/01/16 05:36:55;;;;;;;5.60;1.87;;;0.50;99.90;;;;;;4738584;30;20251;-88
2024/01/16 05:39:21;;;;;;;5.00;1.70;;;0.50;99.90;;;;;;4737269;30;20223;-87
2024/01/16 05:41:48;;;;;;;6.87;2.20;;;0.40;99.90;;;;;;4737558;30;20209;-87
2024/01/16 05:44:14;;;;;;;5.63;2.10;;;0.60;99.90;;;;;;4737469;30;20813;-87
2024/01/16 05:46:40;;;;;;;10.23;2.20;;;0.50;99.90;;;;;;4737072;30;20192;-86
2024/01/16 05:49:05;;;;;;;5.47;1.53;;;0.50;99.90;;;;;;4736221;30;20284;-86
2024/01/16 05:51:31;;;;;;;5.63;1.93;;;0.50;99.90;;;;;;4737125;30;20200;-87
2024/01/16 05:53:57;;;;;;;4.17;1.70;;;0.50;99.90;;;;;;4733072;30;20197;-86
2024/01/16 05:56:22;;;;;;;5.90;1.93;;;0.50;99.90;;;;;;4737033;30;20224;-86
2024/01/16 05:58:48;;;;;;;6.43;1.90;;;0.60;99.90;;;;;;4736608;30;20232;-87
2024/01/16 06:01:14;;;;;;;4.93;1.53;;;0.60;99.90;;;;;;4736932;30;20284;-87
2024/01/16 06:03:40;;;;;;;7.73;2.10;;;0.50;99.90;;;;;;4736686;30;20193;-88
2024/01/16 06:06:07;;;;;;;8.50;2.60;;;0.40;99.90;;;;;;4738195;30;20641;-87
2024/01/16 06:08:33;;;;;;;9.57;1.70;;;0.40;99.90;;;;;;4736997;30;20228;-88
2024/01/16 06:10:59;;;;;;;8.03;1.90;;;0.40;99.90;;;;;;4736906;30;20232;-90
2024/01/16 06:13:26;;;;;;;6.13;2.40;;;0.40;99.90;;;;;;4737014;30;20641;-88
2024/01/16 06:15:51;;;;;;;9.17;1.93;;;0.30;99.90;;;;;;4723049;30;20201;-88
2024/01/16 06:18:17;;;;;;;8.73;2.07;;;0.30;99.90;;;;;;4734213;30;20271;-87
2024/01/16 06:20:43;;;;;;;10.33;2.60;;;0.20;99.90;;;;;;4736199;30;20229;-86
2024/01/16 06:23:13;;;;;;;6.90;2.80;;;0.20;99.90;;;;;;4731102;30;20596;-87
2024/01/16 06:25:38;;;;;;;8.33;2.30;;;0.10;99.90;;;;;;4719534;30;20202;-87
2024/01/16 06:28:05;;;;;;;10.53;2.50;;;0.10;99.90;;;;;;4736062;30;20650;-88
2024/01/16 06:30:31;;;;;;;8.80;2.93;;;0.00;99.90;;;;;;4736336;30;20201;-87
2024/01/16 06:32:56;;;;;;;3.87;2.53;;;0.00;99.90;;;;;;4736506;30;20205;-88
2024/01/16 06:35:23;;;;;;;9.13;2.73;;;0.00;99.90;;;;;;4737774;30;20247;-88
2024/01/16 06:37:49;;;;;;;8.20;2.70;;;0.00;99.90;;;;;;4736458;30;20274;-88
2024/01/16 06:40:15;;;;;;;12.27;3.03;;;-0.10;99.90;;;;;;4729562;30;20658;-89
2024/01/16 06:42:42;;;;;;;10.10;3.10;;;-0.10;99.90;;;;;;4736479;30;20202;-87
2024/01/16 06:45:08;;;;;;;8.60;2.77;;;0.00;99.90;;;;;;4736716;30;20288;-90
2024/01/16 06:47:34;;;;;;;12.37;2.63;;;-0.10;99.90;;;;;;4734802;30;20688;-89
2024/01/16 06:50:00;;;;;;;13.43;3.30;;;-0.10;99.90;;;;;;4736344;30;20310;-89
2024/01/16 06:52:25;;;;;;;7.27;2.57;;;-0.20;99.90;;;;;;4730379;30;20246;-87
2024/01/16 06:54:51;;;;;;;7.63;2.67;;;-0.20;99.90;;;;;;4736509;30;20630;-87
2024/01/16 06:57:17;;;;;;;9.80;3.00;;;-0.20;99.90;;;;;;4736202;30;20517;-87
2024/01/16 06:59:42;;;;;;;6.93;2.27;;;-0.20;99.90;;;;;;4736498;30;20232;-89
2024/01/16 07:02:10;;;;;;;9.70;2.93;;;-0.20;99.90;;;;;;4736390;30;20655;-91
2024/01/16 07:04:36;;;;;;;6.10;3.23;;;-0.20;99.90;;;;;;4736136;30;20246;-88
2024/01/16 07:07:02;;;;;;;12.40;2.60;;;-0.30;99.90;;;;;;4736529;30;20232;-87
2024/01/16 07:09:29;;;;;;;11.50;2.80;;;-0.30;99.90;;;;;;4735895;30;20649;-87
2024/01/16 07:11:54;;;;;;;8.57;3.03;;;-0.30;99.90;;;;;;4736271;30;20204;-88
2024/01/16 07:14:20;;;;;;;9.97;2.63;;;-0.30;99.90;;;;;;4736060;30;20296;-92
2024/01/16 07:16:46;;;;;;;8.13;3.07;;;-0.20;99.90;;;;;;4734320;30;20210;-89
2024/01/16 07:19:12;;;;;;;13.10;2.83;;;-0.20;99.90;;;;;;4716097;30;20232;-88
2024/01/16 07:21:38;;;;;;;9.03;2.87;;;-0.10;99.90;;;;;;4735603;30;20205;-87
2024/01/16 07:24:04;;;;;;;7.57;2.70;;;-0.10;99.90;;;;;;4731714;30;20544;-88
2024/01/16 07:26:30;;;;;;;7.97;2.93;;;-0.10;99.90;;;;;;4734771;30;20197;-88
2024/01/16 07:28:55;;;;;;;7.00;2.30;;;-0.10;99.90;;;;;;4736187;30;20193;-87
2024/01/16 07:31:21;;;;;;;14.57;3.00;;;-0.10;99.90;;;;;;4736197;30;20288;-89
2024/01/16 07:33:47;;;;;;;7.53;2.70;;;-0.10;99.90;;;;;;4736241;30;20197;-88
2024/01/16 07:36:13;;;;;;;8.57;3.10;;;-0.10;99.90;;;;;;4736970;30;20233;-88
2024/01/16 07:38:39;;;;;;;9.93;2.80;;;-0.10;99.90;;;;;;4729241;30;20213;-94
2024/01/16 07:41:05;;;;;;;8.73;2.40;;;-0.10;99.90;;;;;;4736750;30;20711;-89
2024/01/16 07:43:32;;;;;;;8.20;2.70;;;0.00;99.90;;;;;;4729011;30;20207;-88
2024/01/16 07:45:58;;;;;;;8.37;3.03;;;0.00;99.90;;;;;;4730735;30;20630;-89
2024/01/16 07:48:24;;;;;;;7.57;2.50;;;0.00;99.90;;;;;;4735482;30;20193;-93
2024/01/16 07:50:50;;;;;;;9.67;3.00;;;0.00;99.90;;;;;;4736650;30;20203;-90
2024/01/16 07:53:18;;;;;;;7.63;2.63;;;0.10;99.90;;;;;;4736471;30;20301;-89
2024/01/16 07:55:43;;;;;;;6.63;2.07;;;0.10;99.90;;;;;;4734474;30;20638;-90
2024/01/16 07:58:13;;;;;;;7.67;2.60;;;0.20;99.90;;;;;;4716668;30;20204;-89
2024/01/16 08:00:39;;;;;;;7.17;2.80;;;0.10;99.90;;;;;;4737459;30;20318;-90
2024/01/16 08:03:08;;;;;;;6.40;2.63;;;0.20;99.90;;;;;;4736394;30;20255;-89
2024/01/16 08:05:33;;;;;;;7.03;2.80;;;0.20;99.90;;;;;;4737242;30;20284;-89
2024/01/16 08:07:59;;;;;;;8.43;2.40;;;0.10;99.90;;;;;;4728902;30;20247;-89
2024/01/16 08:10:26;;;;;;;7.43;2.70;;;0.10;99.90;;;;;;4736636;30;20321;-89
2024/01/16 08:12:51;;;;;;;9.03;3.20;;;0.10;99.90;;;;;;4736396;30;20544;-90
2024/01/16 08:15:17;;;;;;;6.50;3.00;;;0.20;99.90;;;;;;4736328;30;20201;-95
2024/01/16 08:17:43;;;;;;;9.90;2.50;;;0.20;99.90;;;;;;4705692;30;20625;-94
2024/01/16 08:20:09;;;;;;;8.87;2.87;;;0.20;99.90;;;;;;4719436;30;20261;-89
2024/01/16 08:22:37;;;;;;;11.13;2.80;;;0.30;99.90;;;;;;4733828;30;20672;-90
2024/01/16 08:25:19;;;;;;;9.60;2.77;;;0.30;99.90;;;;;;4734575;30;20198;-96
2024/01/16 08:27:45;;;;;;;9.20;2.50;;;0.30;99.90;;;;;;4733028;30;20249;-93
2024/01/16 08:30:13;;;;;;;9.90;3.20;;;0.40;99.90;;;;;;4712763;30;20646;-91
2024/01/16 08:32:39;;;;;;;8.30;2.77;;;0.40;99.90;;;;;;4732815;30;20256;-91
2024/01/16 08:35:17;;;;;;;9.57;2.83;;;0.40;99.90;;;;;;4733035;30;20603;-90
2024/01/16 08:37:42;;;;;;;5.40;2.70;;;0.40;99.90;;;;;;4725838;30;20198;-92
2024/01/16 08:40:09;;;;;;;7.93;3.30;;;0.40;99.90;;;;;;4732905;30;20235;-91
2024/01/16 08:42:34;;;;;;;10.37;3.40;;;0.40;99.90;;;;;;4726612;30;20201;-96
2024/01/16 08:45:01;;;;;;;6.30;2.93;;;0.50;99.90;;;;;;4734155;30;20201;-94
2024/01/16 08:47:27;;;;;;;8.50;3.83;;;0.60;99.90;;;;;;4731410;30;20204;-94
2024/01/16 08:49:53;;;;;;;8.27;2.67;;;0.60;99.90;;;;;;4733960;30;20202;-94
2024/01/16 08:52:18;;;;;;;12.20;3.23;;;0.60;99.90;;;;;;4731107;30;20248;-96
2024/01/16 08:54:44;;;;;;;6.20;3.33;;;0.60;99.90;;;;;;4715188;30;20198;-93
2024/01/16 08:57:10;;;;;;;7.30;2.70;;;0.60;99.90;;;;;;4736688;30;20194;-95
2024/01/16 08:59:36;;;;;;;9.57;3.43;;;0.60;99.90;;;;;;4723687;30;20210;-93
2024/01/16 09:02:03;;;;;;;8.30;2.73;;;0.60;99.90;;;;;;4728652;30;20209;-94
2024/01/16 09:04:31;;;;;;;14.53;4.00;;;0.60;99.90;;;;;;4737794;30;20531;-96
2024/01/16 09:06:57;;;;;;;9.83;3.50;;;0.60;99.90;;;;;;4722817;30;20218;-95
2024/01/16 09:09:22;;;;;;;6.80;3.00;;;0.70;99.90;;;;;;4714897;30;20205;-91
2024/01/16 09:11:48;;;;;;;6.70;3.23;;;0.70;99.90;;;;;;4733174;30;20202;-92
2024/01/16 09:14:26;;;;;;;9.13;3.37;;;0.80;99.90;;;;;;4718949;30;20232;-95
2024/01/16 09:16:53;;;;;;;13.03;3.40;;;0.90;99.90;;;;;;4738482;30;20209;-93
2024/01/16 09:19:19;;;;;;;8.20;3.33;;;0.90;99.90;;;;;;4737666;30;20241;-92
2024/01/16 09:21:45;;;;;;;5.67;3.10;;;0.90;99.90;;;;;;4738800;30;20219;-93
2024/01/16 09:24:12;;;;;;;11.13;3.80;;;1.00;99.90;;;;;;4732257;30;20258;-95
2024/01/16 09:26:38;;;;;;;13.43;4.03;;;1.10;99.90;;;;;;4740278;30;20259;-91
2024/01/16 09:29:03;;;;;;;9.70;3.47;;;1.00;99.90;;;;;;4731682;30;20591;-95
2024/01/16 09:31:29;;;;;;;17.73;4.00;;;1.10;99.90;;;;;;4738996;30;20260;-91
2024/01/16 09:33:55;;;;;;;5.90;3.70;;;1.10;99.90;;;;;;4736144;30;20197;-93
2024/01/16 09:36:21;;;;;;;10.20;3.67;;;1.20;99.90;;;;;;4720539;30;20197;-96
2024/01/16 09:38:46;;;;;;;6.93;3.50;;;1.30;99.90;;;;;;4739441;30;20197;-94
2024/01/16 09:41:13;;;;;;;8.90;3.70;;;1.40;99.90;;;;;;4731214;30;20312;-90
2024/01/16 09:43:40;;;;;;;8.80;3.70;;;1.40;99.90;;;;;;4736013;30;20193;-90
2024/01/16 09:46:08;;;;;;;8.13;3.23;;;1.50;99.90;;;;;;4726962;30;20226;-95
2024/01/16 09:48:33;;;;;;;7.27;3.83;;;1.40;99.90;;;;;;4727764;30;20223;-96
2024/01/16 09:50:59;;;;;;;8.77;3.43;;;1.40;99.90;;;;;;4738990;30;20653;-95
2024/01/16 09:53:25;;;;;;;8.73;3.40;;;1.30;99.90;;;;;;4738462;30;20201;-89
2024/01/16 09:56:00;;;;;;;8.83;3.57;;;1.30;99.90;;;;;;4731688;30;20251;-91
2024/01/16 09:58:26;;;;;;;6.17;3.00;;;1.20;99.90;;;;;;4739034;30;20192;-94
2024/01/16 10:00:53;;;;;;;10.03;3.60;;;1.20;99.90;;;;;;4732186;30;20231;-94
2024/01/16 10:03:19;;;;;;;9.33;3.67;;;1.20;99.90;;;;;;4738279;30;20226;-91
2024/01/16 10:05:47;;;;;;;8.83;3.40;;;1.20;99.90;;;;;;4738005;30;20292;-95
2024/01/16 10:08:13;;;;;;;8.17;3.10;;;1.20;99.90;;;;;;4737564;30;20197;-94
2024/01/16 10:10:39;;;;;;;11.87;3.77;;;1.20;99.90;;;;;;4737454;30;20200;-95
2024/01/16 10:13:06;;;;;;;9.30;3.87;;;1.30;99.90;;;;;;4730742;30;20599;-93
2024/01/16 10:15:33;;;;;;;6.53;3.73;;;1.30;99.90;;;;;;4730878;30;20198;-95
2024/01/16 10:17:59;;;;;;;11.30;3.70;;;1.40;99.90;;;;;;4730311;30;20276;-91
2024/01/16 10:20:36;;;;;;;7.40;3.20;;;1.40;99.90;;;;;;4738502;30;20233;-90
2024/01/16 10:23:03;;;;;;;6.77;3.60;;;1.40;99.90;;;;;;4733571;30;20205;-95
2024/01/16 10:25:30;;;;;;;5.87;3.10;;;1.40;99.90;;;;;;4727661;30;20285;-90
2024/01/16 10:28:08;;;;;;;6.30;3.33;;;1.50;99.90;;;;;;4737374;30;20663;-93
2024/01/16 10:30:33;;;;;;;9.50;3.50;;;1.60;99.90;;;;;;4737467;30;20268;-96
2024/01/16 10:33:15;;;;;;;5.60;3.40;;;1.70;99.90;;;;;;4737215;30;20213;-91
2024/01/16 10:35:43;;;;;;;14.63;3.67;;;1.80;99.90;;;;;;4729715;30;20201;-87
2024/01/16 10:38:09;;;;;;;8.40;3.40;;;1.80;99.90;;;;;;4737117;30;20664;-90
2024/01/16 10:40:35;;;;;;;6.87;3.43;;;1.80;99.90;;;;;;4729433;30;20229;-90
2024/01/16 10:43:05;;;;;;;9.10;3.20;;;1.70;99.90;;;;;;4736974;30;20242;-89
2024/01/16 10:45:33;;;;;;;9.83;3.47;;;1.70;99.90;;;;;;4737004;30;20629;-90
2024/01/16 10:48:07;;;;;;;5.67;2.97;;;1.70;99.90;;;;;;4736028;30;20194;-88
2024/01/16 10:50:34;;;;;;;8.47;3.67;;;1.70;99.90;;;;;;4735830;30;20283;-90
2024/01/16 10:53:03;;;;;;;11.07;3.53;;;1.60;99.90;;;;;;4723384;30;20655;-90
2024/01/16 10:55:30;;;;;;;9.43;3.90;;;1.60;99.90;;;;;;4736754;30;20295;-89
2024/01/16 10:57:56;;;;;;;10.23;3.33;;;1.70;99.90;;;;;;4729548;30;20638;-89
2024/01/16 11:00:24;;;;;;;9.43;3.37;;;1.70;99.90;;;;;;4736526;30;20234;-87
2024/01/16 11:02:54;;;;;;;11.37;3.73;;;1.70;99.90;;;;;;4729071;30;20201;-87
2024/01/16 11:05:25;;;;;;;9.13;3.17;;;1.70;99.90;;;;;;4729273;30;20247;-89
2024/01/16 11:07:55;;;;;;;9.40;3.23;;;1.80;99.90;;;;;;4728762;30;20707;-88
2024/01/16 11:10:21;;;;;;;9.00;3.77;;;1.80;99.90;;;;;;4729614;30;20259;-93
2024/01/16 11:12:49;;;;;;;8.00;3.33;;;1.70;99.90;;;;;;4736052;30;20228;-91
2024/01/16 11:15:20;;;;;;;10.93;3.70;;;1.70;99.90;;;;;;4730741;30;20304;-87
2024/01/16 11:17:49;;;;;;;8.30;3.43;;;1.70;99.90;;;;;;4718748;30;20581;-89
2024/01/16 11:20:16;;;;;;;9.67;3.90;;;1.80;99.90;;;;;;4735663;30;20240;-87
2024/01/16 11:22:46;;;;;;;8.60;3.80;;;1.90;99.90;;;;;;4736655;30;20228;-88
2024/01/16 11:25:15;;;;;;;8.00;3.17;;;1.90;99.90;;;;;;4736796;30;20228;-87
2024/01/16 11:27:42;;;;;;;10.53;3.60;;;2.00;99.90;;;;;;4736228;30;20193;-86
2024/01/16 11:30:11;;;;;;;9.17;3.97;;;1.90;99.90;;;;;;4736435;30;20204;-88
2024/01/16 11:32:41;;;;;;;10.67;3.40;;;2.00;99.90;;;;;;4736102;30;20559;-89
2024/01/16 11:35:13;;;;;;;9.70;3.73;;;2.00;99.90;;;;;;4735834;30;20200;-88
2024/01/16 11:37:42;;;;;;;9.20;3.17;;;2.00;99.90;;;;;;4735683;30;20629;-87
2024/01/16 11:40:17;;;;;;;8.60;3.50;;;2.00;99.90;;;;;;4735854;30;20247;-88
2024/01/16 11:42:44;;;;;;;11.27;3.83;;;2.00;99.90;;;;;;4711877;30;20206;-87
2024/01/16 11:45:28;;;;;;;6.10;3.33;;;2.00;99.90;;;;;;4731370;30;20228;-89
2024/01/16 11:48:14;;;;;;;8.73;3.60;;;2.00;99.90;;;;;;4724824;30;20240;-88
2024/01/16 11:50:40;;;;;;;11.17;3.90;;;2.10;99.90;;;;;;4733959;30;20637;-87
2024/01/16 11:53:05;;;;;;;5.60;3.47;;;2.10;99.90;;;;;;4730794;30;20206;-88
2024/01/16 11:55:33;;;;;;;9.53;3.73;;;2.20;99.90;;;;;;4717653;30;20201;-86
2024/01/16 11:57:58;;;;;;;7.67;3.80;;;2.20;99.90;;;;;;4728578;30;20205;-87
2024/01/16 12:00:32;;;;;;;10.40;3.90;;;2.20;99.90;;;;;;4720315;30;20263;-87
2024/01/16 12:03:03;;;;;;;6.73;3.87;;;2.30;99.90;;;;;;4717864;30;20202;-89
2024/01/16 12:05:29;;;;;;;7.50;3.93;;;2.20;99.90;;;;;;4732071;30;20251;-87
2024/01/16 12:07:55;;;;;;;6.73;3.70;;;2.20;99.90;;;;;;4735074;30;20441;-90
2024/01/16 12:10:23;;;;;;;7.43;3.50;;;2.20;99.90;;;;;;4734905;30;20204;-86
2024/01/16 12:12:49;;;;;;;5.43;3.17;;;2.30;99.90;;;;;;4728721;30;20220;-85
2024/01/16 12:15:20;;;;;;;8.00;3.63;;;2.30;99.90;;;;;;4735803;30;20201;-87
2024/01/16 12:17:58;;;;;;;7.33;3.23;;;2.40;99.90;;;;;;4731604;30;20257;-90
2024/01/16 12:20:27;;;;;;;7.47;3.43;;;2.50;99.90;;;;;;4734419;30;20236;-86
2024/01/16 12:23:00;;;;;;;4.33;3.27;;;2.40;99.90;;;;;;4735789;30;20189;-88
2024/01/16 12:25:34;;;;;;;8.13;3.47;;;2.40;99.90;;;;;;4719966;30;20197;-86
2024/01/16 12:28:04;;;;;;;9.37;3.50;;;2.30;99.90;;;;;;4734830;30;20201;-89
2024/01/16 12:30:32;;;;;;;6.07;3.00;;;2.10;99.90;;;;;;4734788;30;20204;-85
2024/01/16 12:33:07;;;;;;;8.10;3.33;;;2.10;99.90;;;;;;4734578;30;20280;-85
2024/01/16 12:35:35;;;;;;;11.60;3.67;;;2.10;99.90;;;;;;4719530;30;20197;-87
2024/01/16 12:38:09;;;;;;;9.10;3.13;;;2.10;99.90;;;;;;4735729;30;20632;-84
2024/01/16 12:40:47;;;;;;;9.97;3.53;;;2.10;99.90;;;;;;4727123;30;20248;-86
2024/01/16 12:43:13;;;;;;;8.13;2.70;;;2.10;99.90;;;;;;4735740;30;20193;-87
2024/01/16 12:45:40;;;;;;;5.33;2.67;;;2.20;99.90;;;;;;4718432;30;20212;-90
2024/01/16 12:48:06;;;;;;;7.13;2.83;;;2.20;99.90;;;;;;4727127;30;20667;-90
2024/01/16 12:50:32;;;;;;;8.00;3.07;;;2.20;99.90;;;;;;4734115;30;20197;-86
2024/01/16 12:53:10;;;;;;;5.07;2.20;;;2.30;99.90;;;;;;4734487;30;20208;-85
2024/01/16 12:55:38;;;;;;;4.73;2.40;;;2.20;99.90;;;;;;4734521;30;20205;-85